Time;durP1;ratioP1;P1;durP2;ratioP2;P2;SDS_P1;SDS_P2;PMS_P1;PMS_P2;Temp;Humidity;BMP_temperature;BMP_pressure;BME280_temperature;BME280_humidity;BME280_pressure;Samples;Min_cycle;Max_cycle;Signal;HPM_P1;HPM_P2
2023/11/11 00:00:16;;;;;;;8.13;4.90;;;;;;;;;;2077376;28;20052;-73
2023/11/11 00:01:35;;;;;;;9.55;5.15;;;;;;;;;;2074129;28;20033;-72
2023/11/11 00:02:55;;;;;;;7.22;5.30;;;;;;;;;;2077789;28;20018;-73
2023/11/11 00:04:15;;;;;;;8.98;5.55;;;;;;;;;;2076434;28;20030;-74
2023/11/11 00:05:34;;;;;;;15.85;5.53;;;;;;;;;;2076419;28;20026;-73
2023/11/11 00:06:54;;;;;;;13.57;6.20;;;;;;;;;;2077722;28;20030;-73
2023/11/11 00:08:13;;;;;;;12.02;6.93;;;;;;;;;;2077728;28;20668;-73
2023/11/11 00:09:32;;;;;;;18.05;7.18;;;;;;;;;;2076978;28;20038;-73
2023/11/11 00:10:51;;;;;;;16.58;7.82;;;;;;;;;;2076919;28;20664;-73
2023/11/11 00:12:11;;;;;;;13.40;8.02;;;;;;;;;;2074848;28;20038;-74
2023/11/11 00:13:30;;;;;;;17.52;8.40;;;;;;;;;;2077657;28;20026;-73
2023/11/11 00:14:50;;;;;;;15.68;7.82;;;;;;;;;;2079049;28;20082;-72
2023/11/11 00:16:09;;;;;;;15.32;8.57;;;;;;;;;;2080008;28;20026;-74
2023/11/11 00:17:28;;;;;;;18.75;8.70;;;;;;;;;;2080697;28;20471;-75
2023/11/11 00:18:48;;;;;;;16.50;8.32;;;;;;;;;;2088008;28;20014;-74
2023/11/11 00:20:13;;;;;;;12.77;7.85;;;;;;;;;;2087855;28;20013;-75
2023/11/11 00:21:37;;;;;;;14.55;7.50;;;;;;;;;;2085954;28;20034;-74
2023/11/11 00:22:58;;;;;;;13.52;8.00;;;;;;;;;;2084701;28;20026;-74
2023/11/11 00:24:17;;;;;;;15.90;8.30;;;;;;;;;;2077593;28;20037;-75
2023/11/11 00:25:36;;;;;;;15.35;7.60;;;;;;;;;;2080028;28;20037;-73
2023/11/11 00:26:55;;;;;;;14.77;7.07;;;;;;;;;;2080654;28;20491;-73
2023/11/11 00:28:15;;;;;;;18.17;8.55;;;;;;;;;;2081713;28;20025;-73
2023/11/11 00:29:34;;;;;;;15.60;8.35;;;;;;;;;;2086588;28;20005;-75
2023/11/11 00:30:54;;;;;;;17.30;8.50;;;;;;;;;;2088860;28;20050;-75
2023/11/11 00:32:13;;;;;;;20.52;7.93;;;;;;;;;;2086655;28;20025;-75
2023/11/11 00:33:32;;;;;;;12.23;7.55;;;;;;;;;;2080855;28;20060;-74
2023/11/11 00:34:53;;;;;;;15.75;7.50;;;;;;;;;;2079917;28;20022;-75
2023/11/11 00:36:16;;;;;;;17.65;7.57;;;;;;;;;;2077263;28;20589;-75
2023/11/11 00:37:35;;;;;;;12.93;7.53;;;;;;;;;;2080347;28;20030;-73
2023/11/11 00:38:54;;;;;;;11.85;7.22;;;;;;;;;;2074208;28;20030;-74
2023/11/11 00:40:14;;;;;;;20.27;8.43;;;;;;;;;;2076081;28;20025;-74
2023/11/11 00:41:33;;;;;;;20.77;8.00;;;;;;;;;;2075169;28;20029;-75
2023/11/11 00:42:53;;;;;;;16.73;7.57;;;;;;;;;;2073835;28;20029;-74
2023/11/11 00:44:12;;;;;;;17.10;7.55;;;;;;;;;;2077607;28;20030;-74
2023/11/11 00:45:31;;;;;;;15.93;7.50;;;;;;;;;;2078262;28;20909;-75
2023/11/11 00:46:50;;;;;;;18.00;7.95;;;;;;;;;;2077436;28;20041;-74
2023/11/11 00:48:08;;;;;;;14.65;7.28;;;;;;;;;;2075699;28;20033;-74
2023/11/11 00:49:27;;;;;;;15.13;7.78;;;;;;;;;;2077815;28;20586;-75
2023/11/11 00:50:46;;;;;;;11.68;7.72;;;;;;;;;;2079329;28;20455;-74
2023/11/11 00:52:05;;;;;;;13.90;8.23;;;;;;;;;;2077655;28;20072;-74
2023/11/11 00:53:24;;;;;;;22.33;8.27;;;;;;;;;;2076598;28;20410;-74
2023/11/11 00:54:43;;;;;;;14.65;7.90;;;;;;;;;;2072052;28;20038;-74
2023/11/11 00:56:02;;;;;;;18.13;7.72;;;;;;;;;;2077638;28;20030;-74
2023/11/11 00:57:21;;;;;;;16.42;8.48;;;;;;;;;;2076696;28;20034;-73
2023/11/11 00:58:40;;;;;;;14.75;7.97;;;;;;;;;;2076870;28;20029;-74
2023/11/11 00:59:59;;;;;;;11.48;8.10;;;;;;;;;;2075751;28;20506;-75
2023/11/11 01:01:18;;;;;;;14.45;7.85;;;;;;;;;;2076849;28;20030;-73
2023/11/11 01:02:38;;;;;;;9.32;7.28;;;;;;;;;;2078211;28;20040;-74
2023/11/11 01:03:56;;;;;;;12.10;7.82;;;;;;;;;;2077547;28;20730;-74
2023/11/11 01:05:15;;;;;;;16.75;8.30;;;;;;;;;;2077742;28;20037;-75
2023/11/11 01:06:34;;;;;;;20.77;8.68;;;;;;;;;;2076194;28;20057;-74
2023/11/11 01:07:53;;;;;;;16.55;8.50;;;;;;;;;;2070565;28;20026;-74
2023/11/11 01:09:13;;;;;;;12.65;7.93;;;;;;;;;;2075263;28;20891;-74
2023/11/11 01:10:37;;;;;;;17.77;7.88;;;;;;;;;;2079414;28;20725;-73
2023/11/11 01:11:57;;;;;;;13.48;7.68;;;;;;;;;;2075816;28;20482;-74
2023/11/11 01:13:16;;;;;;;15.50;8.52;;;;;;;;;;2077885;28;20381;-75
2023/11/11 01:14:35;;;;;;;13.93;8.30;;;;;;;;;;2078990;28;20025;-74
2023/11/11 01:15:59;;;;;;;17.55;8.02;;;;;;;;;;2077824;28;20021;-74
2023/11/11 01:17:18;;;;;;;17.77;8.23;;;;;;;;;;2078619;28;20029;-75
2023/11/11 01:18:38;;;;;;;16.80;8.30;;;;;;;;;;2077036;28;20021;-74
2023/11/11 01:19:57;;;;;;;21.60;8.85;;;;;;;;;;2075980;28;20083;-74
2023/11/11 01:21:16;;;;;;;19.98;7.97;;;;;;;;;;2076622;28;20063;-74
2023/11/11 01:22:35;;;;;;;13.57;8.63;;;;;;;;;;2076755;28;20597;-74
2023/11/11 01:23:55;;;;;;;13.15;8.07;;;;;;;;;;2077500;28;20042;-74
2023/11/11 01:25:14;;;;;;;16.48;8.43;;;;;;;;;;2076999;28;20112;-74
2023/11/11 01:26:33;;;;;;;17.98;8.65;;;;;;;;;;2075926;28;20037;-75
2023/11/11 01:27:52;;;;;;;15.02;8.65;;;;;;;;;;2075352;28;20033;-74
2023/11/11 01:29:11;;;;;;;17.00;8.23;;;;;;;;;;2076065;28;20026;-74
2023/11/11 01:30:30;;;;;;;16.38;8.90;;;;;;;;;;2076588;28;20025;-74
2023/11/11 01:31:49;;;;;;;14.15;8.25;;;;;;;;;;2077922;28;20068;-75
2023/11/11 01:33:08;;;;;;;11.82;8.75;;;;;;;;;;2076053;28;20375;-73
2023/11/11 01:34:28;;;;;;;17.48;8.15;;;;;;;;;;2073595;28;20453;-74
2023/11/11 01:35:50;;;;;;;15.48;8.43;;;;;;;;;;2076063;28;20037;-74
2023/11/11 01:37:10;;;;;;;13.30;8.35;;;;;;;;;;2078323;28;20026;-75
2023/11/11 01:38:29;;;;;;;17.92;8.63;;;;;;;;;;2080184;28;20026;-74
2023/11/11 01:39:48;;;;;;;18.95;8.10;;;;;;;;;;2076798;28;20022;-75
2023/11/11 01:41:07;;;;;;;17.85;8.15;;;;;;;;;;2076082;28;20437;-74
2023/11/11 01:42:27;;;;;;;13.10;8.23;;;;;;;;;;2077370;28;20553;-74
2023/11/11 01:43:46;;;;;;;14.38;8.18;;;;;;;;;;2076185;28;20037;-73
2023/11/11 01:45:05;;;;;;;12.18;8.15;;;;;;;;;;2077307;28;20029;-74
2023/11/11 01:46:24;;;;;;;15.63;8.15;;;;;;;;;;2075656;28;20030;-73
2023/11/11 01:47:43;;;;;;;15.63;7.57;;;;;;;;;;2076058;28;20034;-73
2023/11/11 01:49:02;;;;;;;11.98;8.15;;;;;;;;;;2078890;28;20021;-74
2023/11/11 01:50:21;;;;;;;16.83;8.68;;;;;;;;;;2077349;28;20032;-74
2023/11/11 01:51:40;;;;;;;10.18;8.10;;;;;;;;;;2076384;28;20514;-74
2023/11/11 01:52:59;;;;;;;11.45;8.07;;;;;;;;;;2077709;28;20404;-74
2023/11/11 01:54:21;;;;;;;17.20;9.20;;;;;;;;;;2079039;28;20029;-74
2023/11/11 01:55:41;;;;;;;14.70;8.45;;;;;;;;;;2078134;28;20470;-74
2023/11/11 01:57:03;;;;;;;17.33;9.13;;;;;;;;;;2076102;28;20120;-75
2023/11/11 01:58:22;;;;;;;21.48;9.35;;;;;;;;;;2077072;28;20033;-74
2023/11/11 01:59:40;;;;;;;16.23;8.70;;;;;;;;;;2075658;28;20030;-74
2023/11/11 02:00:59;;;;;;;20.48;9.02;;;;;;;;;;2072556;28;20025;-74
2023/11/11 02:02:18;;;;;;;15.45;9.20;;;;;;;;;;2075120;28;20049;-75
2023/11/11 02:03:38;;;;;;;16.30;8.93;;;;;;;;;;2078100;28;20033;-74
2023/11/11 02:04:57;;;;;;;12.80;8.95;;;;;;;;;;2076798;28;20043;-74
2023/11/11 02:06:16;;;;;;;13.75;8.65;;;;;;;;;;2077026;28;20041;-74
2023/11/11 02:07:35;;;;;;;21.55;8.85;;;;;;;;;;2074191;28;20506;-74
2023/11/11 02:08:56;;;;;;;20.85;9.68;;;;;;;;;;2078210;28;20029;-75
2023/11/11 02:10:16;;;;;;;17.13;9.57;;;;;;;;;;2077779;28;20584;-75
2023/11/11 02:11:35;;;;;;;17.33;10.15;;;;;;;;;;2078708;28;20037;-75
2023/11/11 02:12:55;;;;;;;17.60;9.43;;;;;;;;;;2078079;28;20037;-75
2023/11/11 02:14:14;;;;;;;17.88;9.35;;;;;;;;;;2077200;28;20026;-74
2023/11/11 02:15:34;;;;;;;22.58;9.05;;;;;;;;;;2076422;28;20030;-74
2023/11/11 02:16:53;;;;;;;20.83;9.27;;;;;;;;;;2076971;28;20131;-74
2023/11/11 02:18:12;;;;;;;16.85;10.07;;;;;;;;;;2076298;28;21462;-74
2023/11/11 02:19:31;;;;;;;19.85;9.60;;;;;;;;;;2072482;28;21395;-76
2023/11/11 02:20:50;;;;;;;17.95;9.95;;;;;;;;;;2076736;28;20029;-75
2023/11/11 02:22:09;;;;;;;18.73;9.68;;;;;;;;;;2077220;28;20026;-75
2023/11/11 02:23:35;;;;;;;16.40;10.38;;;;;;;;;;2075984;28;20033;-74
2023/11/11 02:25:01;;;;;;;18.67;9.63;;;;;;;;;;2075674;28;20037;-75
2023/11/11 02:26:20;;;;;;;16.00;9.85;;;;;;;;;;2075967;28;20033;-74
2023/11/11 02:27:40;;;;;;;20.67;10.32;;;;;;;;;;2077852;28;20116;-75
2023/11/11 02:28:59;;;;;;;19.95;9.55;;;;;;;;;;2078268;28;20022;-74
2023/11/11 02:30:18;;;;;;;17.77;9.80;;;;;;;;;;2076670;28;20038;-73
2023/11/11 02:31:39;;;;;;;18.48;9.75;;;;;;;;;;2078970;28;20045;-75
2023/11/11 02:32:58;;;;;;;19.80;10.00;;;;;;;;;;2077340;28;20021;-75
2023/11/11 02:34:20;;;;;;;19.10;10.25;;;;;;;;;;2078605;28;20057;-74
2023/11/11 02:35:39;;;;;;;13.60;9.05;;;;;;;;;;2078906;28;20037;-73
2023/11/11 02:36:58;;;;;;;14.68;8.98;;;;;;;;;;2078124;28;20033;-73
2023/11/11 02:38:17;;;;;;;17.65;9.10;;;;;;;;;;2079862;28;20414;-74
2023/11/11 02:39:36;;;;;;;20.25;9.38;;;;;;;;;;2077402;28;20053;-74
2023/11/11 02:40:55;;;;;;;18.17;10.02;;;;;;;;;;2077238;28;20021;-74
2023/11/11 02:42:14;;;;;;;24.65;9.73;;;;;;;;;;2077865;28;20065;-75
2023/11/11 02:43:33;;;;;;;18.17;10.15;;;;;;;;;;2077489;28;20057;-74
2023/11/11 02:44:52;;;;;;;17.85;9.95;;;;;;;;;;2079872;28;20029;-74
2023/11/11 02:46:12;;;;;;;19.75;9.68;;;;;;;;;;2077289;28;20022;-74
2023/11/11 02:47:31;;;;;;;22.45;9.70;;;;;;;;;;2073553;28;20057;-76
2023/11/11 02:48:50;;;;;;;18.50;10.10;;;;;;;;;;2076600;28;20413;-76
2023/11/11 02:50:09;;;;;;;21.35;10.00;;;;;;;;;;2073596;28;20049;-76
2023/11/11 02:51:29;;;;;;;20.27;10.00;;;;;;;;;;2075429;28;20038;-77
2023/11/11 02:52:49;;;;;;;26.55;10.57;;;;;;;;;;2077581;28;20053;-76
2023/11/11 02:54:08;;;;;;;17.80;9.45;;;;;;;;;;2077139;28;20049;-75
2023/11/11 02:55:27;;;;;;;18.83;9.82;;;;;;;;;;2078856;28;20033;-76
2023/11/11 02:56:49;;;;;;;20.50;9.38;;;;;;;;;;2077281;28;20482;-76
2023/11/11 02:58:08;;;;;;;21.70;9.32;;;;;;;;;;2076761;28;20415;-75
2023/11/11 02:59:27;;;;;;;16.83;9.02;;;;;;;;;;2075345;28;20045;-76
2023/11/11 03:00:46;;;;;;;17.25;9.65;;;;;;;;;;2077173;28;20033;-76
2023/11/11 03:02:07;;;;;;;14.85;9.40;;;;;;;;;;2076491;28;20034;-75
2023/11/11 03:03:27;;;;;;;19.20;9.52;;;;;;;;;;2076916;28;20097;-75
2023/11/11 03:04:46;;;;;;;17.80;9.68;;;;;;;;;;2074807;28;20030;-76
2023/11/11 03:06:05;;;;;;;17.20;9.05;;;;;;;;;;2073474;28;20018;-75
2023/11/11 03:07:24;;;;;;;19.52;8.93;;;;;;;;;;2077671;28;20021;-75
2023/11/11 03:08:43;;;;;;;16.42;9.35;;;;;;;;;;2076550;28;20041;-76
2023/11/11 03:10:05;;;;;;;14.20;8.68;;;;;;;;;;2074996;28;20065;-76
2023/11/11 03:11:27;;;;;;;19.17;9.02;;;;;;;;;;2075570;28;20022;-77
2023/11/11 03:12:47;;;;;;;17.98;9.18;;;;;;;;;;2077173;28;20026;-76
2023/11/11 03:14:10;;;;;;;20.02;8.70;;;;;;;;;;2077779;28;20026;-76
2023/11/11 03:15:29;;;;;;;19.15;8.70;;;;;;;;;;2079967;28;20025;-76
2023/11/11 03:16:48;;;;;;;20.92;9.15;;;;;;;;;;2077044;28;20030;-77
2023/11/11 03:18:07;;;;;;;15.68;8.93;;;;;;;;;;2077888;28;20026;-77
2023/11/11 03:19:26;;;;;;;20.17;9.27;;;;;;;;;;2076050;28;20043;-77
2023/11/11 03:20:45;;;;;;;18.20;8.95;;;;;;;;;;2077177;28;20025;-77
2023/11/11 03:22:03;;;;;;;12.23;8.43;;;;;;;;;;2078689;28;20037;-76
2023/11/11 03:23:22;;;;;;;22.27;9.52;;;;;;;;;;2077082;28;20109;-76
2023/11/11 03:24:41;;;;;;;10.70;8.40;;;;;;;;;;2075929;28;20545;-76
2023/11/11 03:26:00;;;;;;;19.52;8.55;;;;;;;;;;2075918;28;20545;-76
2023/11/11 03:27:19;;;;;;;23.50;8.98;;;;;;;;;;2074964;28;20491;-76
2023/11/11 03:28:39;;;;;;;16.52;9.48;;;;;;;;;;2075542;28;20033;-77
2023/11/11 03:30:00;;;;;;;22.25;9.10;;;;;;;;;;2072377;28;20505;-76
2023/11/11 03:31:20;;;;;;;19.90;9.07;;;;;;;;;;2077188;28;20029;-76
2023/11/11 03:32:39;;;;;;;16.85;8.38;;;;;;;;;;2076625;28;20386;-75
2023/11/11 03:33:58;;;;;;;16.27;8.68;;;;;;;;;;2077050;28;20025;-76
2023/11/11 03:35:17;;;;;;;17.52;8.55;;;;;;;;;;2075056;28;20406;-76
2023/11/11 03:36:36;;;;;;;15.88;8.35;;;;;;;;;;2077553;28;20029;-76
2023/11/11 03:37:57;;;;;;;16.15;9.25;;;;;;;;;;2077532;28;20029;-75
2023/11/11 03:39:16;;;;;;;16.45;8.73;;;;;;;;;;2077135;28;20491;-76
2023/11/11 03:40:35;;;;;;;19.65;7.95;;;;;;;;;;2077535;28;20018;-77
2023/11/11 03:41:54;;;;;;;16.75;8.25;;;;;;;;;;2077916;28;20112;-76
2023/11/11 03:43:13;;;;;;;15.63;8.82;;;;;;;;;;2075975;28;20073;-77
2023/11/11 03:44:32;;;;;;;18.80;8.30;;;;;;;;;;2074894;28;20033;-76
2023/11/11 03:45:51;;;;;;;16.85;7.90;;;;;;;;;;2076404;28;20025;-77
2023/11/11 03:47:11;;;;;;;20.10;8.90;;;;;;;;;;2075759;28;20018;-76
2023/11/11 03:48:30;;;;;;;17.70;8.70;;;;;;;;;;2076337;28;20033;-76
2023/11/11 03:49:49;;;;;;;29.52;8.93;;;;;;;;;;2076330;28;20037;-76
2023/11/11 03:51:08;;;;;;;12.18;8.23;;;;;;;;;;2076677;28;20033;-76
2023/11/11 03:52:27;;;;;;;18.23;9.40;;;;;;;;;;2076060;28;20442;-76
2023/11/11 03:53:46;;;;;;;16.38;8.13;;;;;;;;;;2077291;28;20026;-76
2023/11/11 03:55:05;;;;;;;17.48;9.10;;;;;;;;;;2074209;28;20038;-75
2023/11/11 03:56:24;;;;;;;16.88;8.57;;;;;;;;;;2083914;28;20025;-76
2023/11/11 03:57:43;;;;;;;19.23;8.98;;;;;;;;;;2086378;28;20010;-76
2023/11/11 03:59:02;;;;;;;16.73;8.52;;;;;;;;;;2085192;28;20030;-76
2023/11/11 04:00:21;;;;;;;20.17;8.65;;;;;;;;;;2084740;28;20102;-76
2023/11/11 04:01:41;;;;;;;17.75;8.73;;;;;;;;;;2077405;28;20041;-75
2023/11/11 04:03:00;;;;;;;18.63;8.45;;;;;;;;;;2079994;28;20033;-75
2023/11/11 04:04:19;;;;;;;19.48;9.18;;;;;;;;;;2076472;28;20029;-76
2023/11/11 04:05:38;;;;;;;14.70;9.32;;;;;;;;;;2078754;28;20108;-75
2023/11/11 04:06:57;;;;;;;15.32;8.43;;;;;;;;;;2083964;28;20021;-76
2023/11/11 04:08:16;;;;;;;16.60;8.32;;;;;;;;;;2085651;28;20018;-76
2023/11/11 04:09:36;;;;;;;15.20;8.55;;;;;;;;;;2085656;28;20030;-76
2023/11/11 04:10:55;;;;;;;16.05;8.70;;;;;;;;;;2082500;28;20030;-76
2023/11/11 04:12:14;;;;;;;18.70;8.80;;;;;;;;;;2081384;28;20037;-75
2023/11/11 04:13:33;;;;;;;15.15;8.18;;;;;;;;;;2073227;28;20034;-76
2023/11/11 04:14:52;;;;;;;15.55;9.27;;;;;;;;;;2078195;28;20026;-75
2023/11/11 04:16:13;;;;;;;15.50;8.18;;;;;;;;;;2077219;28;20033;-76
2023/11/11 04:17:33;;;;;;;19.95;9.48;;;;;;;;;;2079842;28;20108;-75
2023/11/11 04:18:52;;;;;;;22.38;9.38;;;;;;;;;;2078944;28;20022;-76
2023/11/11 04:20:12;;;;;;;16.27;8.45;;;;;;;;;;2078567;28;20021;-76
2023/11/11 04:21:34;;;;;;;17.27;9.18;;;;;;;;;;2078215;28;20029;-76
2023/11/11 04:22:53;;;;;;;17.95;8.23;;;;;;;;;;2074759;28;20029;-76
2023/11/11 04:24:12;;;;;;;19.55;8.63;;;;;;;;;;2074526;28;20067;-75
2023/11/11 04:25:31;;;;;;;18.73;8.52;;;;;;;;;;2076675;28;20026;-75
2023/11/11 04:26:50;;;;;;;15.80;8.90;;;;;;;;;;2077327;28;20026;-75
2023/11/11 04:28:11;;;;;;;18.02;9.38;;;;;;;;;;2078108;28;20049;-75
2023/11/11 04:29:30;;;;;;;19.75;8.80;;;;;;;;;;2078858;28;20025;-75
2023/11/11 04:30:49;;;;;;;15.30;8.93;;;;;;;;;;2076115;28;20426;-75
2023/11/11 04:32:09;;;;;;;20.90;9.32;;;;;;;;;;2075541;28;20030;-75
2023/11/11 04:33:31;;;;;;;18.02;9.30;;;;;;;;;;2075268;28;20418;-75
2023/11/11 04:34:50;;;;;;;21.20;9.18;;;;;;;;;;2078612;28;20045;-75
2023/11/11 04:36:09;;;;;;;12.35;8.45;;;;;;;;;;2077597;28;20022;-75
2023/11/11 04:37:30;;;;;;;15.77;9.23;;;;;;;;;;2077925;28;20112;-76
2023/11/11 04:38:49;;;;;;;13.43;9.10;;;;;;;;;;2079016;28;20022;-75
2023/11/11 04:40:10;;;;;;;18.35;9.05;;;;;;;;;;2076662;28;20049;-74
2023/11/11 04:41:29;;;;;;;17.77;8.88;;;;;;;;;;2077989;28;20018;-75
2023/11/11 04:42:48;;;;;;;16.05;9.23;;;;;;;;;;2079417;28;20022;-75
2023/11/11 04:44:08;;;;;;;20.00;9.38;;;;;;;;;;2076812;28;20022;-75
2023/11/11 04:45:27;;;;;;;14.05;8.63;;;;;;;;;;2076995;28;20029;-75
2023/11/11 04:46:46;;;;;;;22.10;8.52;;;;;;;;;;2075358;28;20112;-75
2023/11/11 04:48:05;;;;;;;18.15;8.80;;;;;;;;;;2073923;28;20112;-74
2023/11/11 04:49:24;;;;;;;15.48;8.80;;;;;;;;;;2075441;28;20026;-75
2023/11/11 04:50:43;;;;;;;16.38;9.57;;;;;;;;;;2077152;28;20041;-76
2023/11/11 04:52:04;;;;;;;20.23;9.05;;;;;;;;;;2074368;28;20037;-75
2023/11/11 04:53:23;;;;;;;19.92;9.43;;;;;;;;;;2076401;28;20030;-76
2023/11/11 04:54:42;;;;;;;19.42;9.43;;;;;;;;;;2077653;28;20030;-76
2023/11/11 04:56:02;;;;;;;19.10;8.30;;;;;;;;;;2078019;28;20026;-76
2023/11/11 04:57:20;;;;;;;16.00;9.23;;;;;;;;;;2077494;28;20398;-76
2023/11/11 04:58:39;;;;;;;14.60;8.77;;;;;;;;;;2074914;28;20036;-76
2023/11/11 04:59:59;;;;;;;22.77;9.05;;;;;;;;;;2074204;28;20057;-75
2023/11/11 05:01:19;;;;;;;16.42;9.00;;;;;;;;;;2077021;28;20049;-76
2023/11/11 05:02:39;;;;;;;11.73;8.25;;;;;;;;;;2078118;28;20033;-76
2023/11/11 05:04:00;;;;;;;15.63;8.98;;;;;;;;;;2075291;28;20038;-76
2023/11/11 05:05:20;;;;;;;14.77;8.10;;;;;;;;;;2073370;28;20034;-76
2023/11/11 05:06:39;;;;;;;17.45;8.43;;;;;;;;;;2077718;28;20108;-75
2023/11/11 05:07:58;;;;;;;14.18;8.05;;;;;;;;;;2076685;28;20112;-75
2023/11/11 05:09:17;;;;;;;22.98;9.05;;;;;;;;;;2076375;28;20037;-75
2023/11/11 05:10:36;;;;;;;21.17;9.95;;;;;;;;;;2075530;28;20045;-75
2023/11/11 05:11:56;;;;;;;42.50;27.95;;;;;;;;;;2075781;28;20029;-75
2023/11/11 05:13:19;;;;;;;18.55;9.20;;;;;;;;;;2076501;28;20518;-76
2023/11/11 05:14:40;;;;;;;;;;;;;;;;;;2077117;28;20082;-75
2023/11/11 05:16:03;;;;;;;20.95;8.75;;;;;;;;;;2077283;28;20393;-75
2023/11/11 05:17:25;;;;;;;14.63;10.07;;;;;;;;;;2076469;28;20030;-76
2023/11/11 05:18:44;;;;;;;13.60;7.65;;;;;;;;;;2076348;28;20054;-76
2023/11/11 05:20:04;;;;;;;15.02;7.72;;;;;;;;;;2074432;28;20034;-75
2023/11/11 05:21:23;;;;;;;18.92;8.43;;;;;;;;;;2077753;28;20517;-76
2023/11/11 05:22:43;;;;;;;17.17;7.68;;;;;;;;;;2078780;28;20042;-75
2023/11/11 05:24:02;;;;;;;14.10;7.93;;;;;;;;;;2077649;28;20033;-75
2023/11/11 05:25:21;;;;;;;21.70;8.15;;;;;;;;;;2075450;28;20124;-75
2023/11/11 05:26:41;;;;;;;16.13;7.95;;;;;;;;;;2075730;28;20465;-76
2023/11/11 05:28:00;;;;;;;13.68;7.95;;;;;;;;;;2084823;28;20065;-76
2023/11/11 05:29:21;;;;;;;18.38;8.82;;;;;;;;;;2078431;28;20026;-76
2023/11/11 05:30:40;;;;;;;13.30;8.27;;;;;;;;;;2075987;28;20037;-76
2023/11/11 05:32:00;;;;;;;14.10;7.95;;;;;;;;;;2077283;28;20025;-75
2023/11/11 05:33:19;;;;;;;14.05;7.45;;;;;;;;;;2078004;28;20394;-75
2023/11/11 05:34:38;;;;;;;14.93;8.70;;;;;;;;;;2074966;28;20033;-74
2023/11/11 05:35:57;;;;;;;14.18;7.93;;;;;;;;;;2077873;28;20517;-76
2023/11/11 05:37:16;;;;;;;10.98;7.38;;;;;;;;;;2077642;28;20561;-76
2023/11/11 05:38:36;;;;;;;15.25;7.22;;;;;;;;;;2077380;28;20960;-76
2023/11/11 05:39:55;;;;;;;12.75;7.82;;;;;;;;;;2077859;28;20025;-76
2023/11/11 05:41:14;;;;;;;13.32;7.43;;;;;;;;;;2078110;28;20033;-75
2023/11/11 05:42:33;;;;;;;12.68;7.47;;;;;;;;;;2076122;28;20033;-76
2023/11/11 05:43:52;;;;;;;14.68;8.20;;;;;;;;;;2063906;28;20042;-76
2023/11/11 05:45:11;;;;;;;10.73;7.75;;;;;;;;;;2069038;28;20057;-77
2023/11/11 05:46:30;;;;;;;10.32;7.82;;;;;;;;;;2069623;28;20053;-76
2023/11/11 05:47:49;;;;;;;14.13;7.43;;;;;;;;;;2068961;28;20022;-77
2023/11/11 05:49:08;;;;;;;13.43;7.57;;;;;;;;;;2065663;28;20407;-78
2023/11/11 05:50:27;;;;;;;15.93;8.60;;;;;;;;;;2070277;28;20510;-77
2023/11/11 05:51:46;;;;;;;14.52;8.27;;;;;;;;;;2067366;28;20034;-77
2023/11/11 05:53:05;;;;;;;18.00;7.55;;;;;;;;;;2067301;28;20026;-76
2023/11/11 05:54:24;;;;;;;11.15;7.80;;;;;;;;;;2068869;28;20034;-77
2023/11/11 05:55:44;;;;;;;14.32;7.05;;;;;;;;;;2069448;28;20045;-77
2023/11/11 05:57:03;;;;;;;16.00;7.22;;;;;;;;;;2069641;28;20045;-78
2023/11/11 05:58:22;;;;;;;11.85;6.95;;;;;;;;;;2069685;28;20034;-78
2023/11/11 05:59:41;;;;;;;12.13;7.20;;;;;;;;;;2063464;28;20134;-77
2023/11/11 06:01:00;;;;;;;12.88;7.07;;;;;;;;;;2069928;28;20022;-77
2023/11/11 06:02:19;;;;;;;13.93;7.53;;;;;;;;;;2066514;28;20057;-76
2023/11/11 06:03:38;;;;;;;15.02;7.60;;;;;;;;;;2068894;28;20034;-76
2023/11/11 06:04:57;;;;;;;13.35;7.38;;;;;;;;;;2067731;28;20026;-77
2023/11/11 06:06:16;;;;;;;11.98;7.65;;;;;;;;;;2069655;28;20030;-78
2023/11/11 06:07:36;;;;;;;12.68;7.20;;;;;;;;;;2070390;28;20034;-77
2023/11/11 06:08:55;;;;;;;12.73;7.22;;;;;;;;;;2069497;28;20511;-76
2023/11/11 06:10:14;;;;;;;11.77;7.78;;;;;;;;;;2068387;28;20041;-77
2023/11/11 06:11:40;;;;;;;17.73;7.65;;;;;;;;;;2065377;28;20022;-77
2023/11/11 06:12:59;;;;;;;10.63;7.03;;;;;;;;;;2066347;28;20042;-77
2023/11/11 06:14:18;;;;;;;15.07;7.65;;;;;;;;;;2069203;28;20049;-77
2023/11/11 06:15:38;;;;;;;14.18;7.13;;;;;;;;;;2069130;28;20022;-76
2023/11/11 06:16:57;;;;;;;11.35;7.90;;;;;;;;;;2068453;28;20038;-77
2023/11/11 06:18:17;;;;;;;11.82;7.88;;;;;;;;;;2068649;28;20014;-77
2023/11/11 06:19:36;;;;;;;14.13;7.68;;;;;;;;;;2066229;28;20027;-77
2023/11/11 06:20:56;;;;;;;15.90;7.80;;;;;;;;;;2067443;28;20030;-78
2023/11/11 06:22:15;;;;;;;9.43;7.32;;;;;;;;;;2066733;28;20034;-78
2023/11/11 06:23:34;;;;;;;13.63;7.18;;;;;;;;;;2065701;28;20518;-77
2023/11/11 06:24:54;;;;;;;11.25;7.07;;;;;;;;;;2070978;28;20426;-77
2023/11/11 06:26:13;;;;;;;12.25;7.68;;;;;;;;;;2070877;28;20034;-77
2023/11/11 06:27:32;;;;;;;9.82;6.68;;;;;;;;;;2079412;28;20042;-78
2023/11/11 06:28:55;;;;;;;17.23;7.57;;;;;;;;;;2070216;28;20038;-78
2023/11/11 06:30:16;;;;;;;;;;;;;;;;;;2071999;28;20018;-80
2023/11/11 06:31:35;;;;;;;18.35;9.07;;;;;;;;;;2068253;28;19906;-79
2023/11/11 06:32:56;;;;;;;15.75;7.50;;;;;;;;;;2069920;28;20387;-77
2023/11/11 06:34:15;;;;;;;15.40;6.97;;;;;;;;;;2067844;28;20550;-77
2023/11/11 06:35:34;;;;;;;12.68;6.65;;;;;;;;;;2064272;28;20034;-77
2023/11/11 06:36:53;;;;;;;13.15;7.32;;;;;;;;;;2067961;28;20437;-78
2023/11/11 06:38:12;;;;;;;14.20;7.18;;;;;;;;;;2070511;28;20042;-77
2023/11/11 06:39:32;;;;;;;10.45;8.07;;;;;;;;;;2068003;28;20025;-77
2023/11/11 06:40:51;;;;;;;20.05;10.88;;;;;;;;;;2070371;28;20030;-76
2023/11/11 06:42:10;;;;;;;14.15;8.40;;;;;;;;;;2068412;28;20384;-76
2023/11/11 06:43:29;;;;;;;10.68;6.85;;;;;;;;;;2074038;28;20038;-76
2023/11/11 06:44:49;;;;;;;10.90;7.25;;;;;;;;;;2073334;28;20402;-76
2023/11/11 06:46:08;;;;;;;7.95;6.65;;;;;;;;;;2077785;28;20025;-76
2023/11/11 06:47:28;;;;;;;9.88;6.68;;;;;;;;;;2077596;28;20025;-77
2023/11/11 06:48:47;;;;;;;10.65;6.63;;;;;;;;;;2077188;28;20514;-76
2023/11/11 06:50:07;;;;;;;18.45;7.32;;;;;;;;;;2078374;28;20026;-76
2023/11/11 06:51:27;;;;;;;13.43;6.97;;;;;;;;;;2078375;28;20482;-76
2023/11/11 06:52:46;;;;;;;13.98;6.80;;;;;;;;;;2078409;28;20505;-75
2023/11/11 06:54:07;;;;;;;9.32;6.57;;;;;;;;;;2078553;28;20386;-76
2023/11/11 06:55:29;;;;;;;8.68;6.05;;;;;;;;;;2077430;28;20025;-76
2023/11/11 06:56:47;;;;;;;11.32;5.90;;;;;;;;;;2077102;28;20025;-76
2023/11/11 06:58:06;;;;;;;10.38;6.68;;;;;;;;;;2076222;28;20026;-76
2023/11/11 06:59:25;;;;;;;14.25;6.32;;;;;;;;;;2076939;28;20022;-75
2023/11/11 07:00:44;;;;;;;11.88;5.95;;;;;;;;;;2074979;28;20057;-75
2023/11/11 07:02:04;;;;;;;20.35;6.88;;;;;;;;;;2071682;28;20033;-76
2023/11/11 07:03:23;;;;;;;9.77;6.53;;;;;;;;;;2076897;28;20034;-76
2023/11/11 07:04:44;;;;;;;12.82;6.22;;;;;;;;;;2076606;28;20589;-76
2023/11/11 07:06:05;;;;;;;14.23;5.95;;;;;;;;;;2074775;28;20030;-76
2023/11/11 07:07:25;;;;;;;8.50;6.15;;;;;;;;;;2077515;28;20041;-75
2023/11/11 07:08:44;;;;;;;17.70;6.25;;;;;;;;;;2077728;28;20033;-76
2023/11/11 07:10:03;;;;;;;11.98;6.47;;;;;;;;;;2076386;28;20030;-75
2023/11/11 07:11:22;;;;;;;10.52;5.82;;;;;;;;;;2078411;28;20026;-76
2023/11/11 07:12:41;;;;;;;11.05;6.20;;;;;;;;;;2077065;28;20783;-75
2023/11/11 07:14:00;;;;;;;12.10;5.88;;;;;;;;;;2078451;28;20029;-75
2023/11/11 07:15:20;;;;;;;9.93;5.95;;;;;;;;;;2075694;28;20034;-75
2023/11/11 07:16:40;;;;;;;7.97;5.57;;;;;;;;;;2072757;28;20033;-76
2023/11/11 07:17:59;;;;;;;9.40;6.32;;;;;;;;;;2075540;28;20029;-76
2023/11/11 07:19:19;;;;;;;14.35;5.97;;;;;;;;;;2072444;28;20026;-75
2023/11/11 07:20:39;;;;;;;10.95;6.53;;;;;;;;;;2072671;28;20034;-75
2023/11/11 07:21:59;;;;;;;10.20;6.50;;;;;;;;;;2077079;28;20409;-76
2023/11/11 07:23:18;;;;;;;10.23;5.35;;;;;;;;;;2078564;28;20038;-74
2023/11/11 07:24:37;;;;;;;15.30;6.63;;;;;;;;;;2078641;28;20038;-75
2023/11/11 07:25:56;;;;;;;10.18;6.30;;;;;;;;;;2076611;28;20457;-77
2023/11/11 07:27:15;;;;;;;12.82;6.95;;;;;;;;;;2075320;28;20120;-78
2023/11/11 07:28:35;;;;;;;12.73;6.63;;;;;;;;;;2076340;28;20186;-76
2023/11/11 07:29:54;;;;;;;9.63;6.20;;;;;;;;;;2075854;28;20643;-77
2023/11/11 07:31:14;;;;;;;9.13;6.43;;;;;;;;;;2077693;28;20467;-75
2023/11/11 07:32:34;;;;;;;11.45;6.22;;;;;;;;;;2087308;28;20041;-76
2023/11/11 07:33:55;;;;;;;8.75;5.90;;;;;;;;;;2085122;28;20042;-76
2023/11/11 07:35:15;;;;;;;13.27;6.85;;;;;;;;;;2085710;28;20026;-76
2023/11/11 07:36:34;;;;;;;14.32;6.80;;;;;;;;;;2086301;28;20041;-76
2023/11/11 07:37:54;;;;;;;18.33;8.10;;;;;;;;;;2079283;28;20915;-76
2023/11/11 07:39:14;;;;;;;17.83;10.45;;;;;;;;;;2083313;28;20026;-76
2023/11/11 07:40:33;;;;;;;12.05;7.55;;;;;;;;;;2084267;28;20123;-76
2023/11/11 07:41:52;;;;;;;10.48;6.95;;;;;;;;;;2082625;28;20025;-76
2023/11/11 07:43:11;;;;;;;10.38;6.68;;;;;;;;;;2082122;28;20038;-76
2023/11/11 07:44:31;;;;;;;11.50;6.47;;;;;;;;;;2082169;28;20125;-76
2023/11/11 07:45:51;;;;;;;17.17;5.90;;;;;;;;;;2086155;28;20029;-73
2023/11/11 07:47:10;;;;;;;15.95;6.25;;;;;;;;;;2087380;28;20033;-75
2023/11/11 07:48:29;;;;;;;12.35;6.15;;;;;;;;;;2078290;28;20456;-75
2023/11/11 07:49:48;;;;;;;11.05;6.68;;;;;;;;;;2079315;28;20033;-76